createdAt,value
2019-04-28T00:00:44.062Z,12.19
2019-04-28T00:01:44.013Z,12.19
2019-04-28T00:02:44.003Z,12.10
2019-04-28T00:03:43.992Z,12.07
2019-04-28T00:04:43.983Z,12.20
2019-04-28T00:05:43.971Z,12.17
2019-04-28T00:06:43.982Z,12.24
2019-04-28T00:07:43.948Z,12.21
2019-04-28T00:08:43.936Z,12.16
2019-04-28T00:09:43.927Z,12.14
2019-04-28T00:10:43.920Z,12.14
2019-04-28T00:11:43.942Z,12.12
2019-04-28T00:12:43.894Z,12.10
2019-04-28T00:13:43.886Z,12.07
2019-04-28T00:14:43.873Z,12.04
2019-04-28T00:15:43.861Z,12.09
2019-04-28T00:16:43.851Z,12.12
2019-04-28T00:17:43.875Z,12.16
2019-04-28T00:18:43.831Z,12.13
2019-04-28T00:19:43.818Z,12.04
2019-04-28T00:20:43.808Z,12.02
2019-04-28T00:21:43.796Z,12.10
2019-04-28T00:22:43.786Z,12.04
2019-04-28T00:23:43.812Z,12.07
2019-04-28T00:24:43.762Z,12.02
2019-04-28T00:25:43.753Z,12.04
2019-04-28T00:26:43.747Z,12.05
2019-04-28T00:27:43.732Z,12.05
2019-04-28T00:28:43.720Z,12.07
2019-04-28T00:29:46.251Z,12.09
2019-04-28T00:30:43.698Z,12.07
2019-04-28T00:31:43.687Z,12.12
2019-04-28T00:32:43.679Z,12.04
2019-04-28T00:33:43.703Z,12.10
2019-04-28T00:34:43.680Z,12.12
2019-04-28T00:35:43.645Z,12.10
2019-04-28T00:36:43.640Z,12.02
2019-04-28T00:37:43.628Z,12.07
2019-04-28T00:38:43.611Z,12.09
2019-04-28T00:39:43.624Z,12.02
2019-04-28T00:40:43.589Z,12.04
2019-04-28T00:41:43.577Z,12.02
2019-04-28T00:42:43.566Z,11.96
2019-04-28T00:43:43.555Z,11.94
2019-04-28T00:44:43.648Z,11.99
2019-04-28T00:45:43.534Z,11.96
2019-04-28T00:46:43.524Z,11.91
2019-04-28T00:47:43.514Z,11.91
2019-04-28T00:48:43.502Z,11.98
2019-04-28T00:49:43.491Z,11.91
2019-04-28T00:50:43.822Z,11.95
2019-04-28T00:51:43.476Z,11.94
2019-04-28T00:52:43.459Z,11.94
2019-04-28T00:53:43.449Z,11.95
2019-04-28T00:54:43.437Z,11.98
2019-04-28T00:55:43.429Z,11.86
2019-04-28T00:56:43.439Z,11.91
2019-04-28T00:57:43.406Z,11.98
2019-04-28T00:58:43.397Z,11.83
2019-04-28T00:59:54.151Z,11.88
2019-04-28T01:00:44.370Z,11.91
2019-04-28T01:01:43.401Z,11.91
2019-04-28T01:02:43.349Z,11.94
2019-04-28T01:03:43.337Z,11.82
2019-04-28T01:04:43.325Z,11.90
2019-04-28T01:05:43.316Z,11.88
2019-04-28T01:06:43.304Z,11.90
2019-04-28T01:07:43.319Z,11.78
2019-04-28T01:08:43.296Z,11.94
2019-04-28T01:09:43.271Z,11.88
2019-04-28T01:10:43.260Z,11.88
2019-04-28T01:11:43.251Z,11.82
2019-04-28T01:12:46.340Z,11.83
2019-04-28T01:13:43.229Z,11.79
2019-04-28T01:14:43.532Z,11.83
2019-04-28T01:15:43.206Z,11.83
2019-04-28T01:16:43.195Z,11.83
2019-04-28T01:17:43.223Z,11.78
2019-04-28T01:18:43.171Z,11.61
2019-04-28T01:19:43.162Z,11.60
2019-04-28T01:20:43.151Z,11.62
2019-04-28T01:21:43.140Z,11.61
2019-04-28T01:22:43.127Z,11.62
2019-04-28T01:23:43.154Z,11.62
2019-04-28T01:24:43.110Z,11.62
2019-04-28T01:25:43.096Z,11.64
2019-04-28T01:26:43.083Z,11.65
2019-04-28T01:27:43.073Z,11.70
2019-04-28T01:28:43.064Z,11.69
2019-04-28T01:29:43.088Z,11.47
2019-04-28T01:30:43.040Z,11.42
2019-04-28T01:31:43.034Z,11.52
2019-04-28T01:32:43.016Z,11.43
2019-04-28T01:33:43.006Z,11.33
2019-04-28T01:34:42.995Z,11.28
2019-04-28T01:35:43.009Z,11.35
2019-04-28T01:36:42.977Z,11.32
2019-04-28T01:37:42.973Z,11.39
2019-04-28T01:38:42.948Z,11.42
2019-04-28T01:39:42.937Z,11.35
2019-04-28T01:40:42.953Z,11.43
2019-04-28T01:41:42.915Z,11.44
2019-04-28T01:42:42.903Z,11.37
2019-04-28T01:43:42.892Z,11.36
2019-04-28T01:44:42.883Z,11.39
2019-04-28T01:45:42.906Z,11.36
2019-04-28T01:46:42.863Z,11.36
2019-04-28T01:47:42.862Z,11.36
2019-04-28T01:48:42.839Z,11.32
2019-04-28T01:49:42.827Z,11.28
2019-04-28T01:50:42.813Z,11.17
2019-04-28T01:51:42.839Z,11.22
2019-04-28T01:52:42.794Z,11.11
2019-04-28T01:53:42.781Z,11.18
2019-04-28T01:54:42.774Z,11.10
2019-04-28T01:55:42.761Z,11.09
2019-04-28T01:56:42.750Z,10.96
2019-04-28T01:57:42.782Z,10.91
2019-04-28T01:58:42.728Z,10.78
2019-04-28T01:59:42.719Z,10.84
2019-04-28T02:00:42.709Z,10.79
2019-04-28T02:01:42.698Z,10.79
2019-04-28T02:02:42.720Z,10.70
2019-04-28T02:03:42.675Z,10.68
2019-04-28T02:04:42.662Z,10.82
2019-04-28T02:05:42.657Z,10.70
2019-04-28T02:06:42.644Z,10.85
2019-04-28T02:07:42.629Z,10.73
2019-04-28T02:08:42.645Z,10.70
2019-04-28T02:09:42.609Z,10.84
2019-04-28T02:10:42.610Z,10.76
2019-04-28T02:11:42.592Z,10.74
2019-04-28T02:12:42.578Z,10.78
2019-04-28T02:13:42.602Z,10.71
2019-04-28T02:14:42.555Z,10.74
2019-04-28T02:15:42.549Z,10.68
2019-04-28T02:16:42.534Z,10.66
2019-04-28T02:17:42.525Z,10.66
2019-04-28T02:18:42.513Z,10.56
2019-04-28T02:19:42.537Z,10.66
2019-04-28T02:20:42.491Z,10.66
2019-04-28T02:21:42.483Z,10.68
2019-04-28T02:22:42.471Z,10.53
2019-04-28T02:23:42.459Z,10.56
2019-04-28T02:24:42.448Z,10.53
2019-04-28T02:25:42.463Z,10.59
2019-04-28T02:26:42.427Z,10.53
2019-04-28T02:27:42.416Z,10.53
2019-04-28T02:28:42.405Z,10.60
2019-04-28T02:29:42.395Z,10.56
2019-04-28T02:30:49.531Z,10.59
2019-04-28T02:31:43.372Z,10.44
2019-04-28T02:32:42.364Z,10.42
2019-04-28T02:33:42.361Z,10.40
2019-04-28T02:34:42.340Z,10.51
2019-04-28T02:35:42.544Z,10.51
2019-04-28T02:36:42.322Z,10.40
2019-04-28T02:37:42.309Z,10.34
2019-04-28T02:38:42.298Z,10.26
2019-04-28T02:39:42.289Z,10.33
2019-04-28T02:40:42.317Z,10.30
2019-04-28T02:41:42.268Z,10.25
2019-04-28T02:42:42.254Z,10.25
2019-04-28T02:43:42.269Z,10.26
2019-04-28T02:44:42.233Z,10.26
2019-04-28T02:45:42.231Z,10.29
2019-04-28T02:46:42.238Z,10.27
2019-04-28T02:47:42.419Z,10.30
2019-04-28T02:48:42.200Z,10.32
2019-04-28T02:49:42.181Z,10.27
2019-04-28T02:50:42.175Z,10.30
2019-04-28T02:51:42.182Z,10.32
2019-04-28T02:52:42.150Z,10.26
2019-04-28T02:53:42.137Z,10.32
2019-04-28T02:54:42.124Z,10.14
2019-04-28T02:55:42.117Z,10.29
2019-04-28T02:56:43.753Z,10.26
2019-04-28T02:57:42.092Z,10.25
2019-04-28T02:58:42.082Z,10.29
2019-04-28T02:59:44.727Z,10.29
2019-04-28T03:01:00.453Z,10.12
2019-04-28T03:01:43.083Z,10.17
2019-04-28T03:02:42.040Z,10.18
2019-04-28T03:03:42.032Z,10.20
2019-04-28T03:04:42.020Z,10.20
2019-04-28T03:05:42.008Z,10.08
2019-04-28T03:06:41.997Z,10.08
2019-04-28T03:07:42.021Z,10.09
2019-04-28T03:08:41.973Z,10.20
2019-04-28T03:09:41.968Z,10.09
2019-04-28T03:10:41.951Z,10.20
2019-04-28T03:11:43.144Z,10.15
2019-04-28T03:12:41.933Z,10.23
2019-04-28T03:13:41.972Z,10.17
2019-04-28T03:14:44.027Z,10.12
2019-04-28T03:15:41.898Z,10.20
2019-04-28T03:16:41.887Z,10.17
2019-04-28T03:17:41.878Z,10.29
2019-04-28T03:18:41.866Z,10.26
2019-04-28T03:19:41.911Z,10.18
2019-04-28T03:20:42.139Z,10.12
2019-04-28T03:21:41.832Z,10.09
2019-04-28T03:22:41.819Z,10.20
2019-04-28T03:23:41.809Z,10.07
2019-04-28T03:24:41.823Z,10.02
2019-04-28T03:25:41.786Z,10.14
2019-04-28T03:26:41.776Z,10.14
2019-04-28T03:27:41.768Z,10.15
2019-04-28T03:28:41.754Z,10.18
2019-04-28T03:29:41.781Z,10.08
2019-04-28T03:30:43.831Z,10.12
2019-04-28T03:32:04.179Z,10.11
2019-04-28T03:32:52.478Z,10.20
2019-04-28T03:33:48.724Z,10.15
2019-04-28T03:34:43.948Z,10.08
2019-04-28T03:35:44.056Z,10.08
2019-04-28T03:36:41.665Z,10.05
2019-04-28T03:37:41.655Z,10.08
2019-04-28T03:38:41.643Z,10.02
2019-04-28T03:39:41.631Z,9.89
2019-04-28T03:40:41.698Z,9.89
2019-04-28T03:41:41.612Z,9.90
2019-04-28T03:42:41.606Z,9.86
2019-04-28T03:43:41.592Z,9.90
2019-04-28T03:44:41.752Z,9.86
2019-04-28T03:45:41.588Z,9.90
2019-04-28T03:46:41.554Z,9.90
2019-04-28T03:47:41.545Z,9.81
2019-04-28T03:48:41.532Z,9.79
2019-04-28T03:49:43.371Z,9.87
2019-04-28T03:50:41.707Z,9.81
2019-04-28T03:51:41.498Z,9.76
2019-04-28T03:52:41.679Z,9.90
2019-04-28T03:53:41.477Z,9.87
2019-04-28T03:54:41.466Z,9.84
2019-04-28T03:55:41.777Z,9.84
2019-04-28T03:56:41.453Z,9.72
2019-04-28T03:57:41.501Z,9.86
2019-04-28T03:58:41.421Z,9.78
2019-04-28T03:59:43.835Z,9.78
2019-04-28T04:00:41.403Z,9.78
2019-04-28T04:01:55.395Z,9.74
2019-04-28T04:02:42.375Z,9.84
2019-04-28T04:03:41.942Z,9.87
2019-04-28T04:04:41.673Z,9.90
2019-04-28T04:05:41.357Z,9.99
2019-04-28T04:06:41.330Z,9.83
2019-04-28T04:07:43.233Z,9.79
2019-04-28T04:08:41.356Z,9.75
2019-04-28T04:09:41.503Z,9.81
2019-04-28T04:10:41.298Z,9.75
2019-04-28T04:11:41.278Z,9.79
2019-04-28T04:12:41.471Z,9.71
2019-04-28T04:13:41.766Z,9.78
2019-04-28T04:14:47.504Z,9.83
2019-04-28T04:15:41.474Z,9.75
2019-04-28T04:16:41.222Z,9.78
2019-04-28T04:17:41.504Z,9.76
2019-04-28T04:18:41.230Z,9.75
2019-04-28T04:19:41.196Z,9.72
2019-04-28T04:20:41.224Z,9.78
2019-04-28T04:21:41.168Z,9.65
2019-04-28T04:22:41.307Z,9.74
2019-04-28T04:23:41.378Z,9.72
2019-04-28T04:24:41.134Z,9.72
2019-04-28T04:25:41.847Z,9.68
2019-04-28T04:26:41.234Z,9.68
2019-04-28T04:27:41.103Z,9.65
2019-04-28T04:28:41.852Z,9.72
2019-04-28T04:29:43.620Z,9.71
2019-04-28T04:30:41.195Z,9.74
2019-04-28T04:31:41.492Z,9.72
2019-04-28T04:32:41.331Z,9.69
2019-04-28T04:33:41.493Z,9.60
2019-04-28T04:34:41.057Z,9.66
2019-04-28T04:35:43.554Z,9.65
2019-04-28T04:36:41.865Z,9.66
2019-04-28T04:37:40.995Z,9.69
2019-04-28T04:38:45.877Z,9.71
2019-04-28T04:39:42.008Z,9.75
2019-04-28T04:40:41.492Z,9.75
2019-04-28T04:41:43.827Z,9.69
2019-04-28T04:42:40.941Z,9.68
2019-04-28T04:43:41.695Z,9.78
2019-04-28T04:44:41.650Z,9.68
2019-04-28T04:45:40.930Z,9.74
2019-04-28T04:46:41.597Z,9.69
2019-04-28T04:47:40.885Z,9.69
2019-04-28T04:48:40.908Z,9.69
2019-04-28T04:49:40.862Z,9.57
2019-04-28T04:50:41.285Z,9.57
2019-04-28T04:51:43.854Z,9.71
2019-04-28T04:52:40.828Z,9.74
2019-04-28T04:53:40.916Z,9.79
2019-04-28T04:54:40.807Z,9.74
2019-04-28T04:55:41.138Z,9.83
2019-04-28T04:56:40.786Z,9.76
2019-04-28T04:57:40.984Z,9.72
2019-04-28T04:58:40.951Z,9.79
2019-04-28T04:59:40.751Z,9.79
2019-04-28T05:00:43.259Z,9.93
2019-04-28T05:01:40.964Z,9.94
2019-04-28T05:02:46.161Z,9.87
2019-04-28T05:03:41.704Z,9.93
2019-04-28T05:04:40.694Z,9.94
2019-04-28T05:05:40.684Z,9.97
2019-04-28T05:06:41.515Z,9.99
2019-04-28T05:07:40.692Z,9.86
2019-04-28T05:08:40.650Z,9.86
2019-04-28T05:09:40.639Z,9.89
2019-04-28T05:10:40.627Z,9.89
2019-04-28T05:11:40.620Z,9.91
2019-04-28T05:12:40.632Z,9.96
2019-04-28T05:13:40.594Z,9.79
2019-04-28T05:14:40.582Z,9.84
2019-04-28T05:15:40.572Z,9.78
2019-04-28T05:16:40.563Z,9.78
2019-04-28T05:17:40.587Z,9.76
2019-04-28T05:18:41.761Z,9.78
2019-04-28T05:19:40.530Z,9.79
2019-04-28T05:20:40.544Z,9.76
2019-04-28T05:21:40.629Z,9.76
2019-04-28T05:22:42.640Z,9.71
2019-04-28T05:23:41.049Z,9.87
2019-04-28T05:24:40.470Z,9.81
2019-04-28T05:25:40.461Z,9.72
2019-04-28T05:26:47.361Z,9.84
2019-04-28T05:27:41.440Z,9.79
2019-04-28T05:28:43.316Z,9.78
2019-04-28T05:29:41.449Z,9.66
2019-04-28T05:30:43.000Z,9.69
2019-04-28T05:31:40.398Z,9.66
2019-04-28T05:32:45.543Z,9.71
2019-04-28T05:33:42.083Z,9.68
2019-04-28T05:34:46.538Z,9.69
2019-04-28T05:35:41.372Z,9.78
2019-04-28T05:36:44.336Z,9.79
2019-04-28T05:37:40.562Z,9.75
2019-04-28T05:38:42.093Z,9.81
2019-04-28T05:39:40.482Z,9.81
2019-04-28T05:40:40.321Z,9.79
2019-04-28T05:41:40.282Z,9.79
2019-04-28T05:42:40.272Z,9.86
2019-04-28T05:43:40.566Z,9.84
2019-04-28T05:44:40.803Z,9.81
2019-04-28T05:45:40.262Z,9.81
2019-04-28T05:46:40.416Z,9.78
2019-04-28T05:47:40.798Z,9.74
2019-04-28T05:48:40.801Z,9.79
2019-04-28T05:49:40.194Z,9.84
2019-04-28T05:50:40.224Z,9.81
2019-04-28T05:51:40.343Z,9.72
2019-04-28T05:52:40.441Z,9.76
2019-04-28T05:53:40.400Z,9.76
2019-04-28T05:54:40.427Z,9.74
2019-04-28T05:55:41.899Z,9.74
2019-04-28T05:56:40.114Z,9.76
2019-04-28T05:57:40.102Z,9.74
2019-04-28T05:58:40.293Z,9.84
2019-04-28T05:59:40.395Z,9.86
2019-04-28T06:00:41.864Z,9.84
2019-04-28T06:01:40.580Z,9.74
2019-04-28T06:02:53.533Z,9.81
2019-04-28T06:03:41.035Z,9.78
2019-04-28T06:04:40.513Z,9.72
2019-04-28T06:05:40.049Z,9.68
2019-04-28T06:06:40.512Z,9.75
2019-04-28T06:07:40.549Z,9.79
2019-04-28T06:08:40.719Z,9.79
2019-04-28T06:09:40.036Z,9.90
2019-04-28T06:10:40.042Z,9.79
2019-04-28T06:11:39.973Z,9.74
2019-04-28T06:12:40.563Z,9.78
2019-04-28T06:13:40.218Z,9.71
2019-04-28T06:14:40.330Z,9.78
2019-04-28T06:15:39.909Z,9.76
2019-04-28T06:16:40.606Z,9.71
2019-04-28T06:17:39.901Z,9.72
2019-04-28T06:18:42.188Z,9.71
2019-04-28T06:19:40.362Z,9.87
2019-04-28T06:20:40.680Z,9.65
2019-04-28T06:21:39.859Z,9.72
2019-04-28T06:22:39.822Z,9.81
2019-04-28T06:23:39.813Z,9.79
2019-04-28T06:24:39.857Z,9.74
2019-04-28T06:25:39.789Z,9.83
2019-04-28T06:26:39.819Z,9.71
2019-04-28T06:27:39.769Z,9.75
2019-04-28T06:28:39.756Z,9.68
2019-04-28T06:29:39.744Z,9.75
2019-04-28T06:30:39.733Z,9.78
2019-04-28T06:31:39.723Z,9.79
2019-04-28T06:32:39.739Z,9.76
2019-04-28T06:33:39.699Z,9.76
2019-04-28T06:34:39.705Z,9.83
2019-04-28T06:35:39.675Z,9.86
2019-04-28T06:36:39.673Z,9.83
2019-04-28T06:37:39.692Z,9.90
2019-04-28T06:38:39.645Z,9.96
2019-04-28T06:39:39.632Z,9.91
2019-04-28T06:40:39.621Z,9.90
2019-04-28T06:41:39.609Z,9.96
2019-04-28T06:42:39.600Z,9.89
2019-04-28T06:43:39.625Z,9.96
2019-04-28T06:44:39.576Z,9.97
2019-04-28T06:45:39.566Z,10.05
2019-04-28T06:46:39.555Z,10.07
2019-04-28T06:47:39.607Z,10.01
2019-04-28T06:48:39.532Z,10.05
2019-04-28T06:49:39.548Z,10.04
2019-04-28T06:50:39.513Z,10.02
2019-04-28T06:51:39.498Z,10.09
2019-04-28T06:52:39.487Z,10.12
2019-04-28T06:53:39.478Z,10.07
2019-04-28T06:54:39.487Z,10.04
2019-04-28T06:55:39.454Z,10.02
2019-04-28T06:56:39.450Z,10.17
2019-04-28T06:57:39.430Z,10.17
2019-04-28T06:58:39.422Z,10.15
2019-04-28T06:59:39.455Z,10.14
2019-04-28T07:00:39.399Z,10.09
2019-04-28T07:01:39.389Z,10.07
2019-04-28T07:02:39.378Z,10.18
2019-04-28T07:03:39.370Z,10.20
2019-04-28T07:04:39.354Z,10.22
2019-04-28T07:05:39.371Z,10.26
2019-04-28T07:06:39.333Z,10.30
2019-04-28T07:07:39.324Z,10.33
2019-04-28T07:08:39.317Z,10.32
2019-04-28T07:09:39.300Z,10.29
2019-04-28T07:10:39.340Z,10.27
2019-04-28T07:11:39.285Z,10.36
2019-04-28T07:12:39.270Z,10.26
2019-04-28T07:13:39.256Z,10.27
2019-04-28T07:14:39.248Z,10.32
2019-04-28T07:15:39.262Z,10.18
2019-04-28T07:16:39.225Z,10.15
2019-04-28T07:17:39.221Z,10.02
2019-04-28T07:18:39.203Z,10.09
2019-04-28T07:19:39.191Z,10.07
2019-04-28T07:20:39.207Z,10.05
2019-04-28T07:21:39.169Z,10.11
2019-04-28T07:22:39.159Z,9.97
2019-04-28T07:23:39.148Z,10.07
2019-04-28T07:24:39.137Z,10.12
2019-04-28T07:25:39.150Z,10.02
2019-04-28T07:26:39.114Z,10.09
2019-04-28T07:27:39.106Z,10.05
2019-04-28T07:28:39.094Z,10.05
2019-04-28T07:29:39.083Z,10.08
2019-04-28T07:30:39.098Z,9.97
2019-04-28T07:31:39.064Z,9.93
2019-04-28T07:32:39.049Z,9.91
2019-04-28T07:33:39.039Z,9.96
2019-04-28T07:34:39.026Z,9.96
2019-04-28T07:35:39.043Z,9.96
2019-04-28T07:36:39.007Z,9.97
2019-04-28T07:37:38.994Z,10.07
2019-04-28T07:38:38.983Z,10.05
2019-04-28T07:39:38.971Z,9.99
2019-04-28T07:40:38.986Z,10.12
2019-04-28T07:41:38.949Z,10.08
2019-04-28T07:42:38.937Z,10.20
2019-04-28T07:43:38.927Z,10.17
2019-04-28T07:44:38.916Z,10.22
2019-04-28T07:45:38.946Z,10.18
2019-04-28T07:46:38.894Z,10.25
2019-04-28T07:47:38.884Z,10.14
2019-04-28T07:48:38.872Z,10.05
2019-04-28T07:49:38.862Z,10.12
2019-04-28T07:50:38.852Z,10.26
2019-04-28T07:51:38.863Z,10.18
2019-04-28T07:52:38.830Z,10.32
2019-04-28T07:53:38.817Z,10.29
2019-04-28T07:54:40.163Z,10.12
2019-04-28T07:55:38.796Z,10.23
2019-04-28T07:56:38.808Z,10.17
2019-04-28T07:57:38.833Z,10.17
2019-04-28T07:58:38.761Z,10.17
2019-04-28T07:59:38.751Z,10.27
2019-04-28T08:00:38.739Z,10.33
2019-04-28T08:01:38.766Z,10.40
2019-04-28T08:02:38.726Z,10.44
2019-04-28T08:03:48.809Z,10.52
2019-04-28T08:04:39.698Z,10.45
2019-04-28T08:05:38.691Z,10.55
2019-04-28T08:06:38.675Z,10.44
2019-04-28T08:07:38.703Z,10.44
2019-04-28T08:08:38.653Z,10.41
2019-04-28T08:09:38.648Z,10.47
2019-04-28T08:10:38.630Z,10.45
2019-04-28T08:11:38.619Z,10.48
2019-04-28T08:12:38.611Z,10.51
2019-04-28T08:13:38.641Z,10.52
2019-04-28T08:14:38.644Z,10.53
2019-04-28T08:15:38.576Z,10.47
2019-04-28T08:16:38.564Z,10.45
2019-04-28T08:17:38.555Z,10.56
2019-04-28T08:18:38.544Z,10.60
2019-04-28T08:19:38.567Z,10.66
2019-04-28T08:20:38.523Z,10.61
2019-04-28T08:21:38.512Z,10.64
2019-04-28T08:22:38.501Z,10.66
2019-04-28T08:23:47.042Z,10.70
2019-04-28T08:24:39.502Z,10.68
2019-04-28T08:25:38.471Z,10.73
2019-04-28T08:26:38.458Z,10.78
2019-04-28T08:27:38.446Z,10.76
2019-04-28T08:28:38.436Z,10.74
2019-04-28T08:29:38.460Z,10.70
2019-04-28T08:30:38.417Z,10.79
2019-04-28T08:31:38.404Z,10.82
2019-04-28T08:32:38.395Z,10.76
2019-04-28T08:33:38.381Z,10.82
2019-04-28T08:34:38.370Z,10.81
2019-04-28T08:35:38.385Z,10.85
2019-04-28T08:36:38.350Z,10.86
2019-04-28T08:37:38.339Z,10.81
2019-04-28T08:38:38.333Z,10.92
2019-04-28T08:39:38.318Z,10.94
2019-04-28T08:40:38.333Z,11.00
2019-04-28T08:41:38.297Z,10.85
2019-04-28T08:42:38.284Z,10.82
2019-04-28T08:43:38.274Z,10.85
2019-04-28T08:44:38.271Z,10.91
2019-04-28T08:45:38.291Z,11.00
2019-04-28T08:46:38.251Z,10.91
2019-04-28T08:47:38.240Z,11.04
2019-04-28T08:48:38.217Z,11.21
2019-04-28T08:49:38.205Z,11.14
2019-04-28T08:50:38.223Z,11.10
2019-04-28T08:51:38.189Z,11.14
2019-04-28T08:52:38.191Z,11.18
2019-04-28T08:53:38.161Z,11.18
2019-04-28T08:54:38.148Z,11.32
2019-04-28T08:55:38.165Z,11.37
2019-04-28T08:56:38.127Z,11.49
2019-04-28T08:57:38.117Z,11.44
2019-04-28T08:58:38.105Z,11.51
2019-04-28T08:59:38.145Z,11.44
2019-04-28T09:00:38.109Z,11.47
2019-04-28T09:01:38.073Z,11.58
2019-04-28T09:02:38.060Z,11.54
2019-04-28T09:03:38.335Z,11.47
2019-04-28T09:04:38.058Z,11.39
2019-04-28T09:05:38.070Z,11.37
2019-04-28T09:06:38.032Z,11.36
2019-04-28T09:07:38.005Z,11.55
2019-04-28T09:08:38.015Z,11.58
2019-04-28T09:09:37.984Z,11.60
2019-04-28T09:10:38.001Z,11.60
2019-04-28T09:11:37.963Z,11.72
2019-04-28T09:12:37.953Z,11.75
2019-04-28T09:13:37.941Z,11.67
2019-04-28T09:14:37.930Z,11.75
2019-04-28T09:15:37.945Z,11.64
2019-04-28T09:16:37.909Z,11.61
2019-04-28T09:17:37.896Z,11.76
2019-04-28T09:18:37.962Z,11.82
2019-04-28T09:19:37.875Z,11.80
2019-04-28T09:20:37.890Z,11.86
2019-04-28T09:21:37.859Z,11.88
2019-04-28T09:22:37.845Z,11.98
2019-04-28T09:23:37.832Z,12.10
2019-04-28T09:24:37.820Z,12.14
2019-04-28T09:25:37.833Z,12.21
2019-04-28T09:26:37.804Z,12.23
2019-04-28T09:27:37.803Z,12.39
2019-04-28T09:28:37.823Z,12.54
2019-04-28T09:29:37.767Z,12.62
2019-04-28T09:30:37.808Z,12.79
2019-04-28T09:31:37.748Z,12.79
2019-04-28T09:32:37.735Z,12.77
2019-04-28T09:33:37.722Z,12.97
2019-04-28T09:34:37.711Z,12.77
2019-04-28T09:35:37.697Z,12.85
2019-04-28T09:36:37.716Z,12.65
2019-04-28T09:37:37.677Z,12.46
2019-04-28T09:38:37.668Z,12.49
2019-04-28T09:39:37.657Z,12.53
2019-04-28T09:40:37.644Z,12.56
2019-04-28T09:41:37.670Z,12.53
2019-04-28T09:42:37.623Z,12.54
2019-04-28T09:43:37.615Z,12.65
2019-04-28T09:44:37.599Z,12.57
2019-04-28T09:45:37.588Z,12.70
2019-04-28T09:46:37.578Z,12.60
2019-04-28T09:47:37.595Z,12.68
2019-04-28T09:48:37.555Z,12.77
2019-04-28T09:49:37.544Z,12.77
2019-04-28T09:50:37.533Z,12.79
2019-04-28T09:51:37.523Z,12.96
2019-04-28T09:52:37.604Z,12.83
2019-04-28T09:53:37.550Z,12.95
2019-04-28T09:54:37.492Z,13.07
2019-04-28T09:55:37.481Z,13.04
2019-04-28T09:56:37.473Z,13.04
2019-04-28T09:57:37.498Z,12.96
2019-04-28T09:58:37.451Z,12.96
2019-04-28T09:59:37.442Z,12.93
2019-04-28T10:00:37.427Z,12.92
2019-04-28T10:01:37.417Z,12.92
2019-04-28T10:02:37.407Z,13.05
2019-04-28T10:03:37.423Z,13.08
2019-04-28T10:04:41.699Z,13.25
2019-04-28T10:05:37.385Z,13.26
2019-04-28T10:06:37.388Z,13.30
2019-04-28T10:07:37.350Z,13.25
2019-04-28T10:08:37.362Z,13.19
2019-04-28T10:09:37.326Z,13.23
2019-04-28T10:10:37.316Z,13.12
2019-04-28T10:11:37.304Z,13.08
2019-04-28T10:12:37.294Z,12.95
2019-04-28T10:13:37.308Z,12.93
2019-04-28T10:14:38.252Z,12.75
2019-04-28T10:15:37.262Z,12.77
2019-04-28T10:16:37.252Z,12.62
2019-04-28T10:17:37.239Z,12.53
2019-04-28T10:18:37.267Z,12.53
2019-04-28T10:19:37.220Z,12.35
2019-04-28T10:20:37.208Z,12.24
2019-04-28T10:21:37.197Z,12.38
2019-04-28T10:22:37.187Z,12.28
2019-04-28T10:23:37.174Z,12.34
2019-04-28T10:24:37.186Z,12.37
2019-04-28T10:25:37.154Z,12.37
2019-04-28T10:26:37.142Z,12.29
2019-04-28T10:27:37.129Z,12.56
2019-04-28T10:28:37.120Z,12.53
2019-04-28T10:29:37.146Z,12.60
2019-04-28T10:30:37.099Z,12.70
2019-04-28T10:31:37.088Z,12.78
2019-04-28T10:32:37.083Z,12.77
2019-04-28T10:33:37.069Z,12.96
2019-04-28T10:34:37.055Z,13.00
2019-04-28T10:35:37.072Z,13.07
2019-04-28T10:36:37.035Z,13.07
2019-04-28T10:37:37.023Z,13.12
2019-04-28T10:38:37.012Z,13.19
2019-04-28T10:39:37.000Z,13.20
2019-04-28T10:40:37.028Z,13.20
2019-04-28T10:41:36.979Z,13.33
2019-04-28T10:42:36.967Z,13.46
2019-04-28T10:43:36.955Z,13.63
2019-04-28T10:44:36.944Z,13.89
2019-04-28T10:45:36.963Z,13.91
2019-04-28T10:46:36.921Z,14.00
2019-04-28T10:47:36.914Z,14.12
2019-04-28T10:48:36.899Z,14.32
2019-04-28T10:49:36.894Z,14.37
2019-04-28T10:50:36.920Z,14.35
2019-04-28T10:51:36.873Z,14.42
2019-04-28T10:52:36.858Z,14.36
2019-04-28T10:53:36.847Z,14.27
2019-04-28T10:54:36.837Z,14.27
2019-04-28T10:55:36.971Z,14.22
2019-04-28T10:56:36.840Z,14.09
2019-04-28T10:57:36.878Z,14.15
2019-04-28T10:58:36.790Z,14.15
2019-04-28T10:59:36.780Z,14.12
2019-04-28T11:00:36.769Z,14.18
2019-04-28T11:01:36.799Z,14.22
2019-04-28T11:02:36.748Z,14.28
2019-04-28T11:03:36.737Z,14.10
2019-04-28T11:04:36.776Z,14.14
2019-04-28T11:05:36.736Z,14.04
2019-04-28T11:06:36.703Z,14.09
2019-04-28T11:07:36.717Z,14.29
2019-04-28T11:08:36.703Z,14.35
2019-04-28T11:09:36.671Z,14.50
2019-04-28T11:10:36.661Z,14.61
2019-04-28T11:11:36.656Z,14.60
2019-04-28T11:12:36.662Z,14.51
2019-04-28T11:13:36.626Z,14.32
2019-04-28T11:14:36.628Z,14.18
2019-04-28T11:15:36.607Z,14.14
2019-04-28T11:16:36.594Z,13.96
2019-04-28T11:17:36.623Z,13.95
2019-04-28T11:18:36.572Z,14.02
2019-04-28T11:19:36.565Z,13.95
2019-04-28T11:20:36.548Z,13.97
2019-04-28T11:21:36.539Z,14.00
2019-04-28T11:22:36.529Z,14.02
2019-04-28T11:23:36.601Z,14.04
2019-04-28T11:24:36.508Z,14.09
2019-04-28T11:25:36.512Z,14.12
2019-04-28T11:26:36.484Z,14.14
2019-04-28T11:27:36.473Z,13.97
2019-04-28T11:28:37.925Z,13.95
2019-04-28T11:29:36.453Z,13.89
2019-04-28T11:30:36.441Z,13.81
2019-04-28T11:31:36.427Z,13.88
2019-04-28T11:32:36.416Z,13.81
2019-04-28T11:33:36.409Z,13.85
2019-04-28T11:34:36.432Z,13.79
2019-04-28T11:35:36.389Z,13.63
2019-04-28T11:36:36.379Z,13.62
2019-04-28T11:37:36.364Z,13.54
2019-04-28T11:38:36.358Z,13.57
2019-04-28T11:39:36.347Z,13.54
2019-04-28T11:40:36.354Z,13.51
2019-04-28T11:41:36.554Z,13.64
2019-04-28T11:42:36.311Z,13.60
2019-04-28T11:43:36.298Z,13.59
2019-04-28T11:44:36.294Z,13.49
2019-04-28T11:45:36.303Z,13.39
2019-04-28T11:46:36.268Z,13.33
2019-04-28T11:47:36.255Z,13.23
2019-04-28T11:48:36.244Z,13.33
2019-04-28T11:49:36.234Z,13.41
2019-04-28T11:50:36.261Z,13.48
2019-04-28T11:51:36.214Z,13.46
2019-04-28T11:52:36.211Z,13.32
2019-04-28T11:53:36.191Z,13.44
2019-04-28T11:54:36.183Z,13.39
2019-04-28T11:55:36.168Z,13.14
2019-04-28T11:56:41.739Z,13.17
2019-04-28T11:57:37.145Z,13.23
2019-04-28T11:58:36.137Z,13.25
2019-04-28T11:59:36.129Z,13.25
2019-04-28T12:00:36.120Z,13.26
2019-04-28T12:01:36.165Z,13.10
2019-04-28T12:02:36.092Z,13.07
2019-04-28T12:03:36.079Z,13.01
2019-04-28T12:04:36.072Z,13.08
2019-04-28T12:05:38.350Z,13.17
2019-04-28T12:06:36.049Z,13.22
2019-04-28T12:07:36.072Z,13.19
2019-04-28T12:08:36.025Z,13.19
2019-04-28T12:09:36.021Z,13.23
2019-04-28T12:10:36.006Z,13.17
2019-04-28T12:11:35.994Z,13.11
2019-04-28T12:12:35.983Z,13.11
2019-04-28T12:13:35.994Z,13.17
2019-04-28T12:14:35.966Z,13.17
2019-04-28T12:15:35.952Z,13.32
2019-04-28T12:16:35.937Z,13.41
2019-04-28T12:17:35.935Z,13.52
2019-04-28T12:18:35.953Z,13.71
2019-04-28T12:19:35.907Z,13.81
2019-04-28T12:20:35.893Z,13.99
2019-04-28T12:21:35.886Z,14.04
2019-04-28T12:22:35.871Z,14.09
2019-04-28T12:23:35.866Z,14.12
2019-04-28T12:24:35.878Z,14.21
2019-04-28T12:25:35.845Z,14.32
2019-04-28T12:26:35.830Z,14.36
2019-04-28T12:27:35.819Z,14.24
2019-04-28T12:28:35.806Z,14.24
2019-04-28T12:29:35.830Z,14.29
2019-04-28T12:30:35.816Z,14.40
2019-04-28T12:31:35.774Z,14.29
2019-04-28T12:32:35.769Z,14.21
2019-04-28T12:33:35.752Z,14.04
2019-04-28T12:34:35.795Z,14.00
2019-04-28T12:35:47.146Z,13.91
2019-04-28T12:36:36.742Z,14.00
2019-04-28T12:37:35.725Z,13.97
2019-04-28T12:38:35.700Z,14.04
2019-04-28T12:39:35.690Z,13.95
2019-04-28T12:40:35.712Z,14.00
2019-04-28T12:41:35.665Z,13.97
2019-04-28T12:42:35.658Z,14.07
2019-04-28T12:43:35.643Z,14.00
2019-04-28T12:44:35.650Z,13.89
2019-04-28T12:45:35.747Z,13.89
2019-04-28T12:46:35.639Z,13.85
2019-04-28T12:47:35.600Z,13.78
2019-04-28T12:48:35.590Z,13.70
2019-04-28T12:49:35.578Z,13.69
2019-04-28T12:50:35.567Z,13.62
2019-04-28T12:51:35.594Z,13.54
2019-04-28T12:52:35.547Z,13.55
2019-04-28T12:53:35.535Z,13.54
2019-04-28T12:54:35.525Z,13.60
2019-04-28T12:55:35.511Z,13.46
2019-04-28T12:56:35.506Z,13.67
2019-04-28T12:57:35.524Z,13.70
2019-04-28T12:58:35.478Z,13.78